Time;durP1;ratioP1;P1;durP2;ratioP2;P2;SDS_P1;SDS_P2;PMS_P1;PMS_P2;Temp;Humidity;BMP_temperature;BMP_pressure;BME280_temperature;BME280_humidity;BME280_pressure;Samples;Min_cycle;Max_cycle;Signal;HPM_P1;HPM_P2
2022/10/09 00:01:27;;;;;;;11.88;4.00;;;;;;;;;;5039753;28;20024;-67
2022/10/09 00:03:53;;;;;;;12.20;4.90;;;;;;;;;;5029972;28;20029;-65
2022/10/09 00:06:23;;;;;;;14.32;5.30;;;;;;;;;;5029501;28;20498;-66
2022/10/09 00:08:49;;;;;;;17.35;4.53;;;;;;;;;;5029151;28;20057;-66
2022/10/09 00:11:19;;;;;;;11.02;4.32;;;;;;;;;;5030147;28;20060;-68
2022/10/09 00:13:45;;;;;;;16.95;4.50;;;;;;;;;;5029713;28;20509;-67
2022/10/09 00:16:11;;;;;;;10.95;4.60;;;;;;;;;;5030332;28;20093;-67
2022/10/09 00:18:36;;;;;;;9.25;4.50;;;;;;;;;;5028458;28;20025;-67
2022/10/09 00:21:02;;;;;;;14.07;4.28;;;;;;;;;;5029678;28;20104;-67
2022/10/09 00:23:27;;;;;;;10.45;4.78;;;;;;;;;;5030009;28;20048;-67
2022/10/09 00:25:57;;;;;;;8.52;4.60;;;;;;;;;;5030033;28;20024;-67
2022/10/09 00:28:23;;;;;;;11.65;4.15;;;;;;;;;;5026866;28;20014;-67
2022/10/09 00:30:48;;;;;;;13.27;4.53;;;;;;;;;;5030340;28;20339;-68
2022/10/09 00:33:13;;;;;;;9.00;4.22;;;;;;;;;;5030135;28;20025;-67
2022/10/09 00:35:39;;;;;;;9.98;4.45;;;;;;;;;;5029513;28;20018;-67
2022/10/09 00:38:04;;;;;;;10.68;4.22;;;;;;;;;;5028656;28;20549;-68
2022/10/09 00:40:29;;;;;;;18.17;4.70;;;;;;;;;;5029976;28;20037;-66
2022/10/09 00:42:56;;;;;;;17.45;5.30;;;;;;;;;;5028798;28;20025;-68
2022/10/09 00:45:21;;;;;;;11.65;5.20;;;;;;;;;;5029313;28;20442;-67
2022/10/09 00:47:58;;;;;;;10.23;5.20;;;;;;;;;;5029775;28;20022;-68
2022/10/09 00:50:38;;;;;;;17.90;5.50;;;;;;;;;;5018287;28;20025;-68
2022/10/09 00:53:03;;;;;;;10.23;5.20;;;;;;;;;;5028713;28;20079;-67
2022/10/09 00:55:28;;;;;;;23.42;5.18;;;;;;;;;;5029164;28;20025;-66
2022/10/09 00:57:54;;;;;;;11.23;5.35;;;;;;;;;;5028065;28;20097;-65
2022/10/09 01:00:20;;;;;;;12.07;5.05;;;;;;;;;;5028750;28;20112;-68
2022/10/09 01:02:45;;;;;;;15.32;8.50;;;;;;;;;;5015967;28;20104;-68
2022/10/09 01:05:11;;;;;;;14.85;7.72;;;;;;;;;;5028786;28;20014;-67
2022/10/09 01:07:46;;;;;;;17.40;6.00;;;;;;;;;;5028119;28;20027;-68
2022/10/09 01:10:29;;;;;;;17.17;6.05;;;;;;;;;;5028146;28;20037;-67
2022/10/09 01:13:13;;;;;;;15.02;5.65;;;;;;;;;;5015813;28;20029;-66
2022/10/09 01:15:48;;;;;;;16.67;5.35;;;;;;;;;;5028880;28;20091;-70
2022/10/09 01:18:20;;;;;;;13.48;5.35;;;;;;;;;;5028232;28;20034;-66
2022/10/09 01:20:48;;;;;;;12.65;5.22;;;;;;;;;;5028762;28;20024;-67
2022/10/09 01:23:38;;;;;;;17.98;5.95;;;;;;;;;;5028301;28;20033;-67
2022/10/09 01:26:03;;;;;;;12.63;5.53;;;;;;;;;;5029209;28;20554;-65
2022/10/09 01:28:29;;;;;;;19.58;6.20;;;;;;;;;;5028499;28;20025;-67
2022/10/09 01:30:58;;;;;;;12.88;5.10;;;;;;;;;;5028794;28;20021;-69
2022/10/09 01:33:24;;;;;;;13.98;5.25;;;;;;;;;;5029394;28;20065;-67
2022/10/09 01:35:50;;;;;;;19.63;5.25;;;;;;;;;;5029090;28;20063;-66
2022/10/09 01:38:15;;;;;;;10.23;4.32;;;;;;;;;;5028604;28;20025;-66
2022/10/09 01:40:41;;;;;;;13.23;5.80;;;;;;;;;;5028303;28;20041;-67
2022/10/09 01:43:06;;;;;;;11.80;5.53;;;;;;;;;;5028431;28;20509;-66
2022/10/09 01:45:36;;;;;;;17.52;5.30;;;;;;;;;;5028779;28;20021;-66
2022/10/09 01:48:02;;;;;;;10.15;5.38;;;;;;;;;;5010515;28;20025;-67
2022/10/09 01:50:29;;;;;;;22.50;6.60;;;;;;;;;;5024120;28;20020;-67
2022/10/09 01:52:59;;;;;;;11.13;5.72;;;;;;;;;;5025503;28;20029;-66
2022/10/09 01:55:35;;;;;;;19.83;5.50;;;;;;;;;;5028381;28;20022;-67
2022/10/09 01:58:00;;;;;;;19.05;6.45;;;;;;;;;;5028018;28;20021;-67
2022/10/09 02:00:26;;;;;;;13.98;5.85;;;;;;;;;;5028116;28;20732;-67
2022/10/09 02:02:52;;;;;;;11.63;5.70;;;;;;;;;;5028457;28;20017;-68
2022/10/09 02:05:19;;;;;;;17.02;6.85;;;;;;;;;;5028218;28;20017;-67
2022/10/09 02:07:44;;;;;;;11.93;5.97;;;;;;;;;;5027320;28;20096;-68
2022/10/09 02:10:09;;;;;;;16.08;6.25;;;;;;;;;;5027317;28;20101;-68
2022/10/09 02:12:37;;;;;;;12.93;6.25;;;;;;;;;;5027661;28;20017;-65
2022/10/09 02:15:03;;;;;;;14.57;6.22;;;;;;;;;;5028039;28;20101;-67
2022/10/09 02:17:29;;;;;;;18.27;6.38;;;;;;;;;;5027677;28;20100;-65
2022/10/09 02:20:01;;;;;;;16.50;7.43;;;;;;;;;;5028294;28;20033;-65
2022/10/09 02:22:29;;;;;;;14.93;6.60;;;;;;;;;;5022017;28;20025;-67
2022/10/09 02:25:00;;;;;;;16.10;6.38;;;;;;;;;;5020375;28;20033;-66
2022/10/09 02:27:26;;;;;;;16.00;6.43;;;;;;;;;;5027509;28;20688;-68
2022/10/09 02:29:52;;;;;;;13.13;6.07;;;;;;;;;;5023611;28;20064;-66
2022/10/09 02:32:17;;;;;;;16.17;6.82;;;;;;;;;;5027426;28;20026;-66
2022/10/09 02:34:42;;;;;;;17.27;7.47;;;;;;;;;;5027364;28;20091;-67
2022/10/09 02:37:08;;;;;;;17.02;7.18;;;;;;;;;;5027076;28;20097;-66
2022/10/09 02:39:33;;;;;;;17.38;6.53;;;;;;;;;;5027543;28;20032;-66
2022/10/09 02:41:58;;;;;;;17.45;7.55;;;;;;;;;;5028260;28;20025;-64
2022/10/09 02:44:24;;;;;;;14.30;6.15;;;;;;;;;;5031168;28;20087;-66
2022/10/09 02:46:49;;;;;;;17.80;6.50;;;;;;;;;;5030975;28;20020;-65
2022/10/09 02:49:14;;;;;;;26.17;6.82;;;;;;;;;;5031127;28;20581;-66
2022/10/09 02:51:39;;;;;;;20.08;6.53;;;;;;;;;;5031357;28;20021;-66
2022/10/09 02:54:05;;;;;;;17.67;6.78;;;;;;;;;;5030939;28;20016;-65
2022/10/09 02:56:30;;;;;;;18.17;6.75;;;;;;;;;;5030418;28;20200;-65
2022/10/09 02:58:55;;;;;;;17.27;6.40;;;;;;;;;;5031454;28;20053;-66
2022/10/09 03:01:20;;;;;;;14.65;6.68;;;;;;;;;;5030717;28;20028;-65
2022/10/09 03:03:46;;;;;;;13.68;6.43;;;;;;;;;;5031519;28;20108;-65
2022/10/09 03:06:15;;;;;;;18.05;7.57;;;;;;;;;;5031163;28;20671;-66
2022/10/09 03:08:41;;;;;;;16.63;6.78;;;;;;;;;;5031599;28;20028;-66
2022/10/09 03:11:07;;;;;;;19.63;7.70;;;;;;;;;;5030594;28;20021;-66
2022/10/09 03:13:32;;;;;;;12.75;6.55;;;;;;;;;;5031176;28;20013;-66
2022/10/09 03:16:04;;;;;;;18.15;6.78;;;;;;;;;;5012685;28;20029;-66
2022/10/09 03:18:30;;;;;;;16.35;7.25;;;;;;;;;;5031175;28;20029;-67
2022/10/09 03:20:55;;;;;;;14.23;6.97;;;;;;;;;;5030669;28;20093;-65
2022/10/09 03:23:20;;;;;;;21.67;8.43;;;;;;;;;;5017921;28;20442;-67
2022/10/09 03:25:54;;;;;;;16.55;6.28;;;;;;;;;;5029922;28;20044;-65
2022/10/09 03:28:19;;;;;;;17.48;7.18;;;;;;;;;;5030634;28;20036;-66
2022/10/09 03:30:44;;;;;;;24.90;8.63;;;;;;;;;;5031122;28;20018;-67
2022/10/09 03:33:09;;;;;;;21.23;7.90;;;;;;;;;;5031548;28;20025;-66
2022/10/09 03:35:34;;;;;;;21.40;8.98;;;;;;;;;;5031627;28;20509;-67
2022/10/09 03:37:59;;;;;;;21.20;7.65;;;;;;;;;;5013498;28;20026;-67
2022/10/09 03:40:25;;;;;;;24.60;8.57;;;;;;;;;;5022035;28;20037;-66
2022/10/09 03:42:50;;;;;;;17.73;8.45;;;;;;;;;;5032291;28;20048;-67
2022/10/09 03:45:15;;;;;;;18.25;7.90;;;;;;;;;;5030999;28;20116;-67
2022/10/09 03:47:40;;;;;;;16.65;7.05;;;;;;;;;;5031033;28;20017;-67
2022/10/09 03:50:06;;;;;;;26.55;8.55;;;;;;;;;;5030628;28;20024;-67
2022/10/09 03:52:31;;;;;;;22.35;9.30;;;;;;;;;;5023794;28;20470;-66
2022/10/09 03:54:56;;;;;;;21.38;8.90;;;;;;;;;;5031231;28;20029;-66
2022/10/09 03:57:21;;;;;;;19.40;8.73;;;;;;;;;;5031048;28;20438;-65
2022/10/09 03:59:47;;;;;;;25.92;9.45;;;;;;;;;;5030798;28;20479;-66
2022/10/09 04:02:12;;;;;;;22.35;8.48;;;;;;;;;;5030746;28;20030;-67
2022/10/09 04:04:37;;;;;;;20.77;8.32;;;;;;;;;;5030694;28;20041;-66
2022/10/09 04:07:02;;;;;;;21.25;8.38;;;;;;;;;;5030361;28;20041;-68
2022/10/09 04:09:27;;;;;;;16.10;8.32;;;;;;;;;;5030413;28;20025;-66
2022/10/09 04:11:53;;;;;;;18.42;9.57;;;;;;;;;;5030504;28;20025;-68
2022/10/09 04:14:18;;;;;;;25.00;9.15;;;;;;;;;;5029985;28;20025;-66
2022/10/09 04:16:43;;;;;;;19.60;8.40;;;;;;;;;;5029976;28;20033;-66
2022/10/09 04:19:08;;;;;;;25.08;8.63;;;;;;;;;;5012198;28;20018;-66
2022/10/09 04:21:33;;;;;;;22.15;8.55;;;;;;;;;;5030765;28;20036;-67
2022/10/09 04:23:59;;;;;;;25.60;9.93;;;;;;;;;;5012437;28;20033;-67
2022/10/09 04:26:24;;;;;;;23.65;9.85;;;;;;;;;;5028902;28;20041;-66
2022/10/09 04:28:49;;;;;;;17.83;9.10;;;;;;;;;;5008309;28;20010;-67
2022/10/09 04:31:14;;;;;;;22.63;8.93;;;;;;;;;;5031014;28;20511;-66
2022/10/09 04:33:40;;;;;;;24.55;9.25;;;;;;;;;;5030106;28;20060;-66
2022/10/09 04:36:05;;;;;;;21.48;9.48;;;;;;;;;;5029740;28;20109;-66
2022/10/09 04:38:30;;;;;;;24.95;10.00;;;;;;;;;;5012882;28;20029;-66
2022/10/09 04:40:56;;;;;;;20.30;8.85;;;;;;;;;;5029371;28;20108;-65
2022/10/09 04:43:22;;;;;;;22.60;9.00;;;;;;;;;;5029087;28;20021;-65
2022/10/09 04:45:47;;;;;;;29.33;9.10;;;;;;;;;;5029403;28;20032;-67
2022/10/09 04:48:12;;;;;;;18.65;8.60;;;;;;;;;;5028617;28;20022;-65
2022/10/09 04:50:37;;;;;;;19.40;9.27;;;;;;;;;;5029012;28;20040;-66
2022/10/09 04:53:03;;;;;;;19.17;9.75;;;;;;;;;;5028755;28;20454;-66
2022/10/09 04:55:28;;;;;;;15.23;8.10;;;;;;;;;;5028726;28;20079;-67
2022/10/09 04:57:53;;;;;;;16.95;7.97;;;;;;;;;;5028838;28;20022;-65
2022/10/09 05:00:18;;;;;;;21.17;8.73;;;;;;;;;;5029489;28;20048;-66
2022/10/09 05:02:44;;;;;;;19.40;8.35;;;;;;;;;;5011366;28;20487;-67
2022/10/09 05:05:09;;;;;;;19.70;8.55;;;;;;;;;;5029948;28;20032;-66
2022/10/09 05:07:34;;;;;;;17.83;8.95;;;;;;;;;;5011286;28;20510;-68
2022/10/09 05:09:59;;;;;;;23.85;9.85;;;;;;;;;;5028862;28;20025;-67
2022/10/09 05:12:24;;;;;;;19.35;8.60;;;;;;;;;;5029420;28;20411;-66
2022/10/09 05:14:50;;;;;;;22.50;8.88;;;;;;;;;;5029974;28;20037;-67
2022/10/09 05:17:15;;;;;;;20.42;8.65;;;;;;;;;;5010653;28;20104;-67
2022/10/09 05:19:40;;;;;;;17.52;8.20;;;;;;;;;;5030199;28;20017;-66
2022/10/09 05:22:05;;;;;;;20.70;8.63;;;;;;;;;;5009432;28;20952;-66
2022/10/09 05:24:30;;;;;;;24.55;8.85;;;;;;;;;;5020589;28;20018;-66
2022/10/09 05:26:56;;;;;;;22.58;8.65;;;;;;;;;;5029885;28;20064;-66
2022/10/09 05:29:21;;;;;;;20.33;8.82;;;;;;;;;;5029497;28;20556;-67
2022/10/09 05:31:46;;;;;;;22.02;8.45;;;;;;;;;;5011803;28;20021;-70
2022/10/09 05:34:12;;;;;;;22.05;9.13;;;;;;;;;;5029787;28;20017;-66
2022/10/09 05:36:37;;;;;;;22.10;9.10;;;;;;;;;;5011045;28;20041;-68
2022/10/09 05:39:02;;;;;;;29.13;8.38;;;;;;;;;;5029089;28;20053;-67
2022/10/09 05:41:28;;;;;;;23.27;8.07;;;;;;;;;;5029325;28;20379;-68
2022/10/09 05:43:54;;;;;;;16.80;9.32;;;;;;;;;;5037065;22;20231;-70
2022/10/09 05:46:23;;;;;;;23.40;9.40;;;;;;;;;;5007762;28;20108;-71
2022/10/09 05:48:52;;;;;;;22.55;9.35;;;;;;;;;;5008263;28;20026;-74
2022/10/09 05:51:23;;;;;;;23.80;9.77;;;;;;;;;;5005713;28;20030;-71
2022/10/09 05:53:48;;;;;;;21.17;8.93;;;;;;;;;;5007300;28;20022;-72
2022/10/09 05:56:14;;;;;;;22.50;9.52;;;;;;;;;;4987911;28;20027;-69
2022/10/09 05:58:39;;;;;;;30.15;11.40;;;;;;;;;;5006507;28;20025;-68
2022/10/09 06:01:04;;;;;;;27.60;10.68;;;;;;;;;;4983658;28;20268;-70
2022/10/09 06:03:29;;;;;;;24.45;10.73;;;;;;;;;;5011687;28;20033;-68
2022/10/09 06:05:58;;;;;;;22.15;10.23;;;;;;;;;;5006756;28;20034;-70
2022/10/09 06:08:24;;;;;;;19.83;9.50;;;;;;;;;;5003678;28;20026;-70
2022/10/09 06:10:49;;;;;;;27.92;10.40;;;;;;;;;;5007288;28;20033;-70
2022/10/09 06:13:14;;;;;;;35.10;11.93;;;;;;;;;;5004963;28;20025;-72
2022/10/09 06:15:49;;;;;;;30.63;12.77;;;;;;;;;;5005233;28;20483;-71
2022/10/09 06:18:14;;;;;;;28.92;13.40;;;;;;;;;;5011043;28;20028;-71
2022/10/09 06:20:40;;;;;;;38.17;12.07;;;;;;;;;;5012138;28;20404;-72
2022/10/09 06:23:05;;;;;;;25.50;11.20;;;;;;;;;;5002574;28;20037;-70
2022/10/09 06:25:31;;;;;;;32.03;10.77;;;;;;;;;;5006135;28;20084;-70
2022/10/09 06:27:56;;;;;;;28.33;10.48;;;;;;;;;;5007417;28;20614;-71
2022/10/09 06:30:21;;;;;;;24.40;10.50;;;;;;;;;;5000485;28;20056;-69
2022/10/09 06:32:46;;;;;;;26.10;10.20;;;;;;;;;;5014651;28;20017;-68
2022/10/09 06:35:12;;;;;;;25.90;10.45;;;;;;;;;;5007608;28;20018;-71
2022/10/09 06:37:37;;;;;;;27.27;9.43;;;;;;;;;;5003505;28;20659;-71
2022/10/09 06:40:02;;;;;;;19.13;8.90;;;;;;;;;;5006210;28;20087;-71
2022/10/09 06:42:27;;;;;;;27.00;9.45;;;;;;;;;;4986347;28;20602;-71
2022/10/09 06:44:52;;;;;;;20.45;10.25;;;;;;;;;;5008048;28;20056;-69
2022/10/09 06:47:18;;;;;;;28.25;10.00;;;;;;;;;;5006920;28;20508;-68
2022/10/09 06:49:43;;;;;;;30.05;10.48;;;;;;;;;;5007317;28;20018;-70
2022/10/09 06:52:08;;;;;;;22.05;9.90;;;;;;;;;;5002579;28;20022;-72
2022/10/09 06:54:33;;;;;;;26.30;9.85;;;;;;;;;;5007743;28;20730;-70
2022/10/09 06:56:58;;;;;;;23.13;9.02;;;;;;;;;;5011802;28;20064;-66
2022/10/09 06:59:24;;;;;;;23.92;9.68;;;;;;;;;;5012140;28;20383;-68
2022/10/09 07:01:49;;;;;;;23.33;9.13;;;;;;;;;;5006891;28;20022;-65
2022/10/09 07:04:16;;;;;;;24.92;9.70;;;;;;;;;;5011137;28;20142;-69
2022/10/09 07:06:43;;;;;;;26.10;9.50;;;;;;;;;;5013312;28;20627;-69
2022/10/09 07:09:09;;;;;;;22.33;9.32;;;;;;;;;;5010966;28;20075;-67
2022/10/09 07:11:36;;;;;;;24.90;10.68;;;;;;;;;;5011528;28;20586;-68
2022/10/09 07:14:02;;;;;;;23.08;10.18;;;;;;;;;;4994131;28;20064;-70
2022/10/09 07:16:32;;;;;;;24.95;9.80;;;;;;;;;;5012288;28;20527;-70
2022/10/09 07:19:00;;;;;;;20.17;8.85;;;;;;;;;;5007151;28;20029;-69
2022/10/09 07:21:25;;;;;;;23.08;8.73;;;;;;;;;;4989983;28;20082;-69
2022/10/09 07:23:50;;;;;;;21.83;8.90;;;;;;;;;;5007615;28;20490;-69
2022/10/09 07:26:17;;;;;;;15.95;7.35;;;;;;;;;;5007133;28;20026;-67
2022/10/09 07:28:43;;;;;;;22.48;9.30;;;;;;;;;;5008925;28;20440;-68
2022/10/09 07:31:08;;;;;;;26.50;8.93;;;;;;;;;;5010469;28;20042;-71
2022/10/09 07:33:33;;;;;;;15.45;7.65;;;;;;;;;;4990888;28;20369;-70
2022/10/09 07:36:00;;;;;;;16.17;8.13;;;;;;;;;;4987694;28;20424;-70
2022/10/09 07:38:25;;;;;;;25.65;9.20;;;;;;;;;;5013465;28;20035;-71
2022/10/09 07:40:51;;;;;;;17.67;8.55;;;;;;;;;;5014003;28;20216;-68
2022/10/09 07:43:16;;;;;;;24.05;10.00;;;;;;;;;;5014700;28;20053;-70
2022/10/09 07:45:42;;;;;;;22.83;9.13;;;;;;;;;;5013417;28;20199;-67
2022/10/09 07:48:07;;;;;;;19.05;9.70;;;;;;;;;;5014202;28;20022;-70
2022/10/09 07:50:32;;;;;;;25.60;8.95;;;;;;;;;;5013997;28;20021;-67
2022/10/09 07:52:57;;;;;;;15.98;7.70;;;;;;;;;;5011625;28;20017;-68
2022/10/09 07:55:22;;;;;;;20.38;8.32;;;;;;;;;;5012970;28;20337;-68
2022/10/09 07:57:49;;;;;;;17.05;8.77;;;;;;;;;;5013785;28;20043;-67
2022/10/09 08:00:14;;;;;;;27.35;8.73;;;;;;;;;;5013031;28;20053;-69
2022/10/09 08:02:39;;;;;;;20.02;8.63;;;;;;;;;;5011222;28;20505;-68
2022/10/09 08:05:04;;;;;;;18.42;8.38;;;;;;;;;;5010587;28;20022;-68
2022/10/09 08:07:30;;;;;;;21.17;8.70;;;;;;;;;;5010844;28;20037;-71
2022/10/09 08:09:55;;;;;;;18.17;7.75;;;;;;;;;;5010621;28;20040;-68
2022/10/09 08:12:20;;;;;;;27.67;8.75;;;;;;;;;;5011268;28;20078;-70
2022/10/09 08:14:47;;;;;;;21.77;8.75;;;;;;;;;;5010320;28;20036;-69
2022/10/09 08:17:13;;;;;;;24.08;9.38;;;;;;;;;;5015388;28;20503;-70
2022/10/09 08:19:38;;;;;;;32.33;9.43;;;;;;;;;;5016713;28;20041;-70
2022/10/09 08:22:03;;;;;;;17.80;8.73;;;;;;;;;;5014068;28;20029;-70
2022/10/09 08:24:28;;;;;;;21.85;9.32;;;;;;;;;;5017088;28;20395;-70
2022/10/09 08:26:53;;;;;;;17.40;8.07;;;;;;;;;;5019319;28;20363;-70
2022/10/09 08:29:20;;;;;;;24.58;6.50;;;;;;;;;;5015654;28;20475;-69
2022/10/09 08:31:45;;;;;;;25.65;7.03;;;;;;;;;;5010323;28;20033;-69
2022/10/09 08:34:10;;;;;;;13.48;6.78;;;;;;;;;;5012821;28;20033;-69
2022/10/09 08:36:36;;;;;;;15.18;6.03;;;;;;;;;;5008758;28;20025;-69
2022/10/09 08:39:01;;;;;;;17.08;6.30;;;;;;;;;;5008955;28;20021;-71
2022/10/09 08:41:32;;;;;;;21.27;5.93;;;;;;;;;;5012686;28;20547;-69
2022/10/09 08:44:08;;;;;;;14.65;5.05;;;;;;;;;;5006525;28;20088;-70
2022/10/09 08:46:33;;;;;;;12.65;5.00;;;;;;;;;;5016409;28;20371;-70
2022/10/09 08:48:59;;;;;;;16.00;5.37;;;;;;;;;;5009812;28;20034;-71
2022/10/09 08:51:26;;;;;;;23.00;4.82;;;;;;;;;;5011007;28;21223;-69
2022/10/09 08:54:00;;;;;;;19.95;5.70;;;;;;;;;;5010101;28;20387;-68
2022/10/09 08:56:26;;;;;;;17.35;4.97;;;;;;;;;;5010190;28;20017;-71
2022/10/09 08:58:51;;;;;;;17.02;4.47;;;;;;;;;;5012147;28;20033;-69
2022/10/09 09:01:46;;;;;;;25.13;4.80;;;;;;;;;;5008950;28;20237;-71
2022/10/09 09:04:30;;;;;;;11.85;3.90;;;;;;;;;;4970831;28;20104;-71
2022/10/09 09:07:13;;;;;;;20.17;4.35;;;;;;;;;;5012256;28;20040;-68
2022/10/09 09:09:53;;;;;;;16.65;4.60;;;;;;;;;;5007296;28;20034;-69
2022/10/09 09:12:37;;;;;;;12.50;4.38;;;;;;;;;;4994250;28;20049;-71
2022/10/09 09:15:20;;;;;;;16.48;4.55;;;;;;;;;;5012110;28;20022;-68
2022/10/09 09:17:58;;;;;;;13.32;3.85;;;;;;;;;;5014323;28;20272;-69
2022/10/09 09:20:29;;;;;;;15.68;4.28;;;;;;;;;;5011189;28;20441;-71
2022/10/09 09:22:55;;;;;;;13.18;3.72;;;;;;;;;;5009444;28;20387;-69
2022/10/09 09:25:22;;;;;;;13.65;4.30;;;;;;;;;;5010914;28;20492;-67
2022/10/09 09:27:47;;;;;;;14.43;3.72;;;;;;;;;;5009831;28;20056;-68
2022/10/09 09:30:22;;;;;;;20.02;6.47;;;;;;;;;;5007808;28;20022;-69
2022/10/09 09:33:07;;;;;;;13.60;3.88;;;;;;;;;;5007057;28;20518;-69
2022/10/09 09:35:35;;;;;;;9.15;3.95;;;;;;;;;;4991383;28;20399;-71
2022/10/09 09:38:01;;;;;;;19.80;3.95;;;;;;;;;;5010300;28;20021;-70
2022/10/09 09:40:29;;;;;;;19.90;4.43;;;;;;;;;;4990893;28;20055;-72
2022/10/09 09:42:55;;;;;;;14.15;3.55;;;;;;;;;;5008268;28;20567;-71
2022/10/09 09:45:22;;;;;;;18.90;3.13;;;;;;;;;;5012278;28;20670;-70
2022/10/09 09:47:50;;;;;;;16.23;2.83;;;;;;;;;;5008100;28;20404;-71
2022/10/09 09:50:26;;;;;;;18.88;3.80;;;;;;;;;;5009223;28;20017;-73
2022/10/09 09:52:51;;;;;;;9.60;2.65;;;;;;;;;;5010160;28;20033;-69
2022/10/09 09:55:26;;;;;;;13.02;3.75;;;;;;;;;;4993038;28;20033;-70
2022/10/09 09:57:57;;;;;;;10.80;2.33;;;;;;;;;;4990372;28;20029;-71
2022/10/09 10:00:22;;;;;;;10.25;4.50;;;;;;;;;;5013290;28;20456;-69
2022/10/09 10:02:48;;;;;;;15.43;3.70;;;;;;;;;;5009013;28;20052;-71
2022/10/09 10:05:15;;;;;;;15.00;2.63;;;;;;;;;;5010166;28;20025;-69
2022/10/09 10:07:40;;;;;;;16.00;3.28;;;;;;;;;;4994871;28;20030;-73
2022/10/09 10:10:12;;;;;;;14.45;3.08;;;;;;;;;;5009042;28;20041;-70
2022/10/09 10:12:42;;;;;;;13.75;2.88;;;;;;;;;;5011825;28;20028;-71
2022/10/09 10:15:21;;;;;;;13.90;3.28;;;;;;;;;;5011664;28;20057;-70
2022/10/09 10:17:48;;;;;;;10.02;2.92;;;;;;;;;;5015003;28;20091;-68
2022/10/09 10:20:14;;;;;;;16.20;3.13;;;;;;;;;;5013116;28;20026;-69
2022/10/09 10:22:40;;;;;;;15.88;3.38;;;;;;;;;;5010544;28;20049;-64
2022/10/09 10:25:08;;;;;;;12.95;2.70;;;;;;;;;;5011050;28;20018;-68
2022/10/09 10:27:41;;;;;;;20.48;2.95;;;;;;;;;;4993994;28;20025;-70
2022/10/09 10:30:10;;;;;;;11.98;2.65;;;;;;;;;;5006480;28;20033;-70
2022/10/09 10:32:38;;;;;;;8.75;1.90;;;;;;;;;;5005807;28;20060;-69
2022/10/09 10:35:17;;;;;;;9.75;2.13;;;;;;;;;;5005783;28;20013;-70
2022/10/09 10:37:42;;;;;;;;;;;;;;;;;;5007546;28;20040;-67
2022/10/09 10:40:26;;;;;;;9.25;2.15;;;;;;;;;;5007057;28;19921;-70
2022/10/09 10:42:54;;;;;;;10.75;2.00;;;;;;;;;;5000183;28;20092;-72
2022/10/09 10:45:25;;;;;;;14.27;2.20;;;;;;;;;;5007061;28;20164;-72
2022/10/09 10:47:52;;;;;;;9.85;2.00;;;;;;;;;;4985956;28;20122;-70
2022/10/09 10:50:18;;;;;;;12.80;1.70;;;;;;;;;;5004859;28;20040;-68
2022/10/09 10:52:49;;;;;;;15.02;2.05;;;;;;;;;;5007063;28;20026;-69
2022/10/09 10:55:25;;;;;;;8.93;1.73;;;;;;;;;;5005822;28;20018;-67
2022/10/09 10:57:53;;;;;;;7.53;1.60;;;;;;;;;;5006758;28;20428;-69
2022/10/09 11:00:18;;;;;;;11.43;1.70;;;;;;;;;;5007420;28;20432;-68
2022/10/09 11:03:02;;;;;;;17.35;2.72;;;;;;;;;;5002529;28;20105;-68
2022/10/09 11:05:46;;;;;;;15.68;2.63;;;;;;;;;;5008607;28;20022;-66
2022/10/09 11:08:14;;;;;;;7.10;1.65;;;;;;;;;;4993698;28;20067;-66
2022/10/09 11:10:46;;;;;;;12.95;2.47;;;;;;;;;;5010284;28;20028;-68
2022/10/09 11:13:31;;;;;;;5.95;1.50;;;;;;;;;;5010179;28;20014;-67
2022/10/09 11:15:56;;;;;;;14.18;1.98;;;;;;;;;;5011080;28;20042;-68
2022/10/09 11:18:24;;;;;;;8.73;1.33;;;;;;;;;;5009594;28;20025;-69
2022/10/09 11:21:03;;;;;;;13.13;2.35;;;;;;;;;;5001557;28;20838;-69
2022/10/09 11:23:34;;;;;;;7.05;1.75;;;;;;;;;;5009753;28;20046;-68
2022/10/09 11:26:02;;;;;;;9.38;1.63;;;;;;;;;;5011410;28;20030;-69
2022/10/09 11:28:31;;;;;;;6.53;1.63;;;;;;;;;;5010494;28;20029;-68
2022/10/09 11:31:01;;;;;;;11.23;1.75;;;;;;;;;;4992396;28;20270;-68
2022/10/09 11:33:27;;;;;;;6.68;1.25;;;;;;;;;;4991826;28;20025;-70
2022/10/09 11:35:58;;;;;;;11.48;1.45;;;;;;;;;;5010830;28;20372;-72
2022/10/09 11:38:28;;;;;;;7.93;1.42;;;;;;;;;;5009474;28;20115;-70
2022/10/09 11:40:54;;;;;;;9.38;2.17;;;;;;;;;;4993258;28;20512;-69
2022/10/09 11:45:53;;;;;;;14.82;1.50;;;;;;;;;;5024711;23;20045;-68
2022/10/09 11:48:26;;;;;;;11.23;1.43;;;;;;;;;;5005369;28;20037;-66
2022/10/09 11:50:57;;;;;;;7.65;1.00;;;;;;;;;;4994788;28;20271;-66
2022/10/09 11:53:24;;;;;;;13.75;1.90;;;;;;;;;;5002693;28;20104;-65
2022/10/09 11:56:00;;;;;;;10.25;1.60;;;;;;;;;;4972973;28;20023;-67
2022/10/09 11:58:25;;;;;;;8.70;1.92;;;;;;;;;;4989111;28;20033;-67
2022/10/09 12:00:52;;;;;;;10.15;1.70;;;;;;;;;;4993413;28;20455;-66
2022/10/09 12:03:32;;;;;;;8.02;1.45;;;;;;;;;;4981904;28;20388;-67
2022/10/09 12:06:11;;;;;;;5.88;1.55;;;;;;;;;;4954232;28;20477;-66
2022/10/09 12:08:59;;;;;;;5.20;1.05;;;;;;;;;;4968724;28;20397;-65
2022/10/09 12:11:25;;;;;;;8.52;1.50;;;;;;;;;;4950835;28;20061;-67
2022/10/09 12:13:52;;;;;;;15.23;1.50;;;;;;;;;;4977916;28;20638;-67
2022/10/09 12:16:28;;;;;;;8.82;1.30;;;;;;;;;;4973486;28;20049;-65
2022/10/09 12:18:54;;;;;;;10.00;1.80;;;;;;;;;;4989384;28;20022;-66
2022/10/09 12:21:24;;;;;;;7.20;1.13;;;;;;;;;;4980130;28;20555;-66
2022/10/09 12:23:50;;;;;;;9.55;1.50;;;;;;;;;;4977516;28;20441;-66
2022/10/09 12:26:15;;;;;;;7.72;1.98;;;;;;;;;;4991144;28;20370;-67
2022/10/09 12:28:49;;;;;;;6.78;1.45;;;;;;;;;;4990695;28;20022;-64
2022/10/09 12:31:26;;;;;;;7.80;1.40;;;;;;;;;;4990534;28;20019;-65
2022/10/09 12:34:14;;;;;;;4.55;1.00;;;;;;;;;;4986303;28;20019;-68
2022/10/09 12:36:39;;;;;;;16.73;2.17;;;;;;;;;;4974913;28;20519;-64
2022/10/09 12:39:18;;;;;;;8.02;1.90;;;;;;;;;;4973341;28;20034;-65
2022/10/09 12:41:44;;;;;;;11.15;1.52;;;;;;;;;;4971528;28;20512;-66
2022/10/09 12:44:36;;;;;;;11.25;2.05;;;;;;;;;;4984594;28;20092;-65
2022/10/09 12:47:03;;;;;;;4.68;1.30;;;;;;;;;;4989427;28;20074;-65
2022/10/09 12:49:29;;;;;;;11.90;1.73;;;;;;;;;;4977268;28;20107;-65
2022/10/09 12:51:55;;;;;;;10.77;1.43;;;;;;;;;;4973132;28;20018;-65
2022/10/09 12:54:20;;;;;;;7.90;1.52;;;;;;;;;;4977014;28;20244;-65
2022/10/09 12:56:47;;;;;;;10.27;1.73;;;;;;;;;;4979176;28;20500;-65
2022/10/09 12:59:12;;;;;;;8.05;1.45;;;;;;;;;;4983499;28;20029;-65
2022/10/09 13:01:38;;;;;;;8.40;1.52;;;;;;;;;;4986097;28;20543;-65
2022/10/09 13:04:04;;;;;;;9.00;1.77;;;;;;;;;;4989777;28;20585;-65
2022/10/09 13:06:50;;;;;;;7.88;1.52;;;;;;;;;;4980531;28;20053;-66
2022/10/09 13:09:20;;;;;;;7.45;1.40;;;;;;;;;;4969975;28;20495;-65
2022/10/09 13:11:50;;;;;;;8.52;1.33;;;;;;;;;;4952943;28;20023;-66
2022/10/09 13:14:35;;;;;;;4.78;1.02;;;;;;;;;;4978667;28;20034;-65
2022/10/09 13:17:00;;;;;;;6.28;1.25;;;;;;;;;;4977565;28;20033;-65
2022/10/09 13:19:30;;;;;;;3.05;1.00;;;;;;;;;;4990356;28;20022;-66
2022/10/09 13:21:59;;;;;;;10.30;1.60;;;;;;;;;;4971431;28;20030;-66
2022/10/09 13:24:25;;;;;;;9.25;1.50;;;;;;;;;;4970887;28;20034;-65
2022/10/09 13:26:50;;;;;;;13.57;2.27;;;;;;;;;;4984763;28;20030;-65
2022/10/09 13:29:15;;;;;;;10.57;1.65;;;;;;;;;;4994489;28;20283;-64
2022/10/09 13:31:43;;;;;;;6.70;1.42;;;;;;;;;;4990589;28;20806;-65
2022/10/09 13:34:10;;;;;;;7.18;1.42;;;;;;;;;;4990282;28;20117;-65
2022/10/09 13:36:35;;;;;;;8.45;1.35;;;;;;;;;;4987244;28;20040;-66
2022/10/09 13:39:01;;;;;;;6.90;1.30;;;;;;;;;;4988509;28;20030;-66
2022/10/09 13:41:26;;;;;;;8.23;1.43;;;;;;;;;;4989286;28;20294;-66
2022/10/09 13:43:52;;;;;;;10.85;1.63;;;;;;;;;;4994326;28;20363;-64
2022/10/09 13:46:17;;;;;;;13.77;1.58;;;;;;;;;;4976548;28;20200;-67
2022/10/09 13:48:42;;;;;;;7.53;1.30;;;;;;;;;;4975439;28;20031;-65
2022/10/09 13:51:07;;;;;;;6.43;1.80;;;;;;;;;;4989049;28;21235;-65
2022/10/09 13:53:33;;;;;;;8.48;1.48;;;;;;;;;;4974435;28;20211;-64
2022/10/09 13:55:58;;;;;;;10.32;1.60;;;;;;;;;;4994713;28;20037;-66
2022/10/09 13:58:23;;;;;;;11.35;1.33;;;;;;;;;;4990262;28;20336;-65
2022/10/09 14:00:49;;;;;;;10.48;1.60;;;;;;;;;;4990982;28;20026;-64
2022/10/09 14:03:15;;;;;;;10.52;1.52;;;;;;;;;;4991211;28;20480;-66
2022/10/09 14:05:40;;;;;;;6.68;1.17;;;;;;;;;;4995709;28;20164;-66
2022/10/09 14:08:05;;;;;;;4.78;1.35;;;;;;;;;;4990955;28;20091;-66
2022/10/09 14:10:31;;;;;;;12.67;1.47;;;;;;;;;;4992494;28;20045;-66
2022/10/09 14:12:56;;;;;;;9.00;1.27;;;;;;;;;;4974797;28;20415;-65
2022/10/09 14:15:21;;;;;;;7.55;1.02;;;;;;;;;;4991720;28;20916;-64
2022/10/09 14:17:46;;;;;;;9.98;1.27;;;;;;;;;;4987759;28;20752;-65
2022/10/09 14:20:11;;;;;;;6.87;1.10;;;;;;;;;;4989840;28;20475;-67
2022/10/09 14:22:37;;;;;;;13.52;1.40;;;;;;;;;;4989291;28;20271;-64
2022/10/09 14:25:02;;;;;;;12.63;1.95;;;;;;;;;;4987088;28;20062;-66
2022/10/09 14:27:27;;;;;;;5.60;1.25;;;;;;;;;;4987061;28;20041;-66
2022/10/09 14:29:53;;;;;;;13.73;2.38;;;;;;;;;;4995744;28;20452;-64
2022/10/09 14:32:18;;;;;;;7.15;1.60;;;;;;;;;;4988856;28;20142;-65
2022/10/09 14:34:43;;;;;;;5.88;1.08;;;;;;;;;;4993951;28;20026;-65
2022/10/09 14:37:08;;;;;;;8.13;1.38;;;;;;;;;;4989348;28;20114;-65